Time;durP1;ratioP1;P1;durP2;ratioP2;P2;SDS_P1;SDS_P2;PMS_P1;PMS_P2;Temp;Humidity;BMP_temperature;BMP_pressure;BME280_temperature;BME280_humidity;BME280_pressure;Samples;Min_cycle;Max_cycle;Signal;HPM_P1;HPM_P2
2021/08/29 00:00:38;;;;;;;6.85;3.50;;;14.70;99.90;;;16.26;100.00;100887.59;6132884;23;20105;-90
2021/08/29 00:03:04;;;;;;;7.95;3.15;;;14.70;99.90;;;16.25;99.96;100883.97;6131106;23;20009;-91
2021/08/29 00:05:30;;;;;;;5.85;3.00;;;14.60;99.90;;;16.26;99.99;100887.59;6133606;23;20148;-89
2021/08/29 00:07:55;;;;;;;5.20;2.97;;;14.70;99.90;;;16.28;100.00;100890.84;6108667;23;20010;-89
2021/08/29 00:10:21;;;;;;;6.10;3.03;;;14.70;99.90;;;16.28;99.98;100885.19;6133762;23;20010;-87
2021/08/29 00:12:47;;;;;;;6.28;3.33;;;14.70;99.90;;;16.25;100.00;100885.97;6107341;23;20014;-88
2021/08/29 00:15:13;;;;;;;9.38;3.83;;;14.60;99.90;;;16.22;100.00;100881.94;6110489;23;20365;-86
2021/08/29 00:17:39;;;;;;;9.15;3.22;;;14.60;99.90;;;16.25;100.00;100880.34;6133056;23;20014;-87
2021/08/29 00:20:06;;;;;;;5.97;3.22;;;14.70;99.90;;;16.23;100.00;100877.94;6137819;23;20009;-87
2021/08/29 00:22:32;;;;;;;6.65;3.65;;;14.60;99.90;;;16.25;100.00;100874.72;6142658;23;20013;-90
2021/08/29 00:24:58;;;;;;;4.82;2.75;;;14.70;99.90;;;16.27;100.00;100864.69;6167271;23;20057;-86
2021/08/29 00:27:24;;;;;;;5.80;3.10;;;14.70;99.90;;;16.27;100.00;100864.69;6138150;23;20002;-88
2021/08/29 00:29:49;;;;;;;8.80;3.55;;;14.70;99.90;;;16.30;100.00;100871.53;6166860;23;20005;-85
2021/08/29 00:32:16;;;;;;;5.93;3.30;;;14.70;99.90;;;16.30;100.00;100872.34;6169915;23;20088;-87
2021/08/29 00:34:41;;;;;;;5.03;3.35;;;14.70;99.90;;;16.29;100.00;100864.28;6165632;23;20005;-86
2021/08/29 00:37:07;;;;;;;7.50;3.20;;;14.80;99.90;;;16.31;100.00;100868.31;6139829;23;20041;-90
2021/08/29 00:39:35;;;;;;;4.95;3.47;;;14.70;99.90;;;16.32;100.00;100869.13;6164575;23;20424;-87
2021/08/29 00:42:08;;;;;;;8.88;4.13;;;14.70;99.90;;;16.31;100.00;100867.53;6165888;23;20005;-91
2021/08/29 00:44:35;;;;;;;6.75;3.10;;;14.70;99.90;;;16.30;100.00;100871.53;6140267;23;20053;-87
2021/08/29 00:47:07;;;;;;;6.10;3.08;;;14.70;99.90;;;16.28;100.00;100860.66;6165712;23;20085;-90
2021/08/29 00:49:41;;;;;;;6.80;3.35;;;14.70;99.90;;;16.28;100.00;100860.66;6140424;23;20009;-89
2021/08/29 00:52:08;;;;;;;8.30;3.38;;;14.70;99.90;;;16.26;100.00;100853.78;6139654;23;20014;-89
2021/08/29 00:54:38;;;;;;;8.98;4.07;;;14.70;99.90;;;16.25;100.00;100857.78;6140564;23;20009;-89
2021/08/29 00:57:09;;;;;;;7.93;3.40;;;14.70;99.90;;;16.22;100.00;100850.94;6140011;23;20347;-91
2021/08/29 00:59:42;;;;;;;10.18;4.05;;;14.70;99.90;;;16.23;100.00;100848.94;6138790;23;20033;-87
2021/08/29 01:02:26;;;;;;;10.27;3.92;;;14.70;99.90;;;16.22;100.00;100855.75;6165239;23;20005;-90
2021/08/29 01:05:20;;;;;;;7.45;3.63;;;14.70;99.90;;;16.22;100.00;100853.75;6164202;23;20130;-89
2021/08/29 01:08:15;;;;;;;11.98;4.30;;;14.70;99.90;;;16.26;100.00;100860.25;6164622;23;20396;-88
2021/08/29 01:10:57;;;;;;;8.15;3.38;;;14.70;99.90;;;16.24;100.00;100857.00;6140174;23;20002;-86
2021/08/29 01:13:34;;;;;;;8.88;3.67;;;14.70;99.90;;;16.26;100.00;100848.16;6140798;23;20013;-89
2021/08/29 01:16:08;;;;;;;6.20;3.45;;;14.70;99.90;;;16.23;100.00;100848.94;6138537;23;20019;-90
2021/08/29 01:18:35;;;;;;;7.18;2.95;;;14.60;99.90;;;16.20;100.00;100847.72;6139701;23;20044;-90
2021/08/29 01:21:13;;;;;;;7.55;3.33;;;14.60;99.90;;;16.20;100.00;100847.72;6162645;23;20041;-86
2021/08/29 01:23:54;;;;;;;6.95;3.97;;;14.60;99.90;;;16.19;100.00;100848.91;6162758;23;20010;-88
2021/08/29 01:27:02;;;;;;;5.88;3.17;;;14.60;99.90;;;16.21;100.00;100846.50;6138848;23;20037;-89
2021/08/29 01:29:31;;;;;;;8.48;3.83;;;14.60;99.90;;;16.19;100.00;100848.09;6138159;23;20006;-90
2021/08/29 01:32:00;;;;;;;6.72;3.63;;;14.60;99.90;;;16.16;100.00;100849.69;6137300;23;20009;-89
2021/08/29 01:34:27;;;;;;;11.30;4.28;;;14.60;99.90;;;16.17;100.00;100844.88;6137570;23;20013;-90
2021/08/29 01:36:55;;;;;;;6.68;3.47;;;14.60;99.90;;;16.17;100.00;100842.06;6161836;23;20009;-92
2021/08/29 01:39:23;;;;;;;7.55;3.92;;;14.60;99.90;;;16.17;100.00;100851.31;6137403;23;20005;-91
2021/08/29 01:41:53;;;;;;;6.18;3.90;;;14.60;99.90;;;16.17;100.00;100850.50;6137181;23;20014;-90
2021/08/29 01:44:22;;;;;;;8.82;4.10;;;14.60;99.90;;;16.15;100.00;100842.44;6137970;23;20009;-89
2021/08/29 01:46:51;;;;;;;6.82;3.95;;;14.60;99.90;;;16.17;100.00;100840.03;6138205;23;20017;-91
2021/08/29 01:49:18;;;;;;;7.47;4.00;;;14.60;99.90;;;16.18;100.00;100840.88;6164511;23;20002;-91
2021/08/29 01:51:44;;;;;;;5.65;3.55;;;14.60;99.90;;;16.19;100.00;100839.63;6138954;23;20005;-89
2021/08/29 01:54:11;;;;;;;8.68;4.03;;;14.60;99.90;;;16.19;100.00;100840.47;6141220;23;20009;-88
2021/08/29 01:57:16;;;;;;;8.73;4.20;;;14.60;99.90;;;16.18;100.00;100844.47;6134050;23;20021;-91
2021/08/29 01:59:44;;;;;;;6.47;3.42;;;14.60;99.90;;;16.19;100.00;100836.81;6040405;23;20025;-90
2021/08/29 02:02:14;;;;;;;10.30;3.85;;;14.60;99.90;;;16.18;100.00;100844.47;6041123;23;20007;-89
2021/08/29 02:04:45;;;;;;;8.00;3.75;;;14.60;99.90;;;16.19;100.00;100845.28;6101442;23;20017;-90
2021/08/29 02:07:26;;;;;;;7.65;3.72;;;14.60;99.90;;;16.18;100.00;100847.28;6160273;23;20005;-89
2021/08/29 02:10:01;;;;;;;7.53;3.63;;;14.60;99.90;;;16.18;100.00;100844.47;6134330;23;20062;-90
2021/08/29 02:12:35;;;;;;;5.80;4.15;;;14.60;99.90;;;16.17;100.00;100844.88;6133387;23;20005;-90
2021/08/29 02:15:17;;;;;;;13.98;4.82;;;14.60;99.90;;;16.17;100.00;100842.06;6133736;23;20340;-90
2021/08/29 02:17:44;;;;;;;8.05;4.57;;;14.60;99.90;;;16.16;100.00;100846.88;6134111;23;20001;-90
2021/08/29 02:20:21;;;;;;;10.20;4.38;;;14.60;99.90;;;16.15;100.00;100842.44;6134106;23;20009;-87
2021/08/29 02:22:48;;;;;;;14.05;5.20;;;14.60;99.90;;;16.16;100.00;100835.59;6133488;23;20092;-88
2021/08/29 02:25:14;;;;;;;12.93;4.55;;;14.60;99.90;;;16.17;100.00;100831.59;6134596;23;20368;-88
2021/08/29 02:27:42;;;;;;;9.63;4.35;;;14.60;99.90;;;16.18;100.00;100838.81;6134169;23;20366;-88
2021/08/29 02:30:10;;;;;;;10.45;4.70;;;14.60;99.90;;;16.13;100.00;100825.13;6159385;23;20028;-87
2021/08/29 02:32:43;;;;;;;10.30;4.78;;;14.60;99.90;;;16.17;100.00;100827.97;6134228;23;20020;-88
2021/08/29 02:35:10;;;;;;;10.40;4.43;;;14.60;99.90;;;16.15;100.00;100819.88;6133335;23;20013;-86
2021/08/29 02:37:38;;;;;;;6.63;4.25;;;14.60;99.90;;;16.17;100.00;100819.50;6158537;23;20005;-87
2021/08/29 02:40:09;;;;;;;6.95;3.85;;;14.50;99.90;;;16.19;100.00;100820.72;6162160;23;20017;-84
2021/08/29 02:42:34;;;;;;;9.05;4.63;;;14.60;99.90;;;16.18;100.00;100812.69;6153704;23;20009;-84
2021/08/29 02:45:12;;;;;;;8.60;5.32;;;14.60;99.90;;;16.15;100.00;100822.72;6179803;23;20025;-84
2021/08/29 02:47:38;;;;;;;7.07;4.00;;;14.60;99.90;;;16.14;100.00;100823.94;6165012;23;20017;-87
2021/08/29 02:50:07;;;;;;;9.35;4.68;;;14.60;99.90;;;16.14;100.00;100826.75;6133520;23;20016;-90
2021/08/29 02:52:33;;;;;;;10.05;4.43;;;14.60;99.90;;;16.14;100.00;100828.75;6158468;23;20344;-88
2021/08/29 02:55:02;;;;;;;9.27;4.80;;;14.50;99.90;;;16.14;100.00;100825.94;6134213;23;20006;-91
2021/08/29 02:57:35;;;;;;;9.38;4.53;;;14.50;99.90;;;16.15;100.00;100828.34;6134180;23;20080;-91
2021/08/29 03:00:02;;;;;;;10.25;5.07;;;14.60;99.90;;;16.14;100.00;100817.47;6133529;23;20033;-90
2021/08/29 03:02:28;;;;;;;9.77;4.43;;;14.50;99.90;;;16.14;100.00;100811.84;6134674;23;20009;-91
2021/08/29 03:04:54;;;;;;;11.20;4.10;;;14.60;99.90;;;16.15;100.00;100813.47;6134829;23;20006;-91
2021/08/29 03:07:21;;;;;;;12.77;5.25;;;14.60;99.90;;;16.08;100.00;100808.59;6160697;23;20002;-91
2021/08/29 03:09:47;;;;;;;11.35;4.65;;;14.60;99.90;;;16.12;100.00;100811.41;6135059;23;20006;-88
2021/08/29 03:12:14;;;;;;;8.10;4.68;;;14.60;99.90;;;16.16;100.00;100815.06;6159303;23;20010;-90
2021/08/29 03:14:41;;;;;;;7.28;4.13;;;14.50;99.90;;;16.17;100.00;100813.88;6159314;23;20005;-88
2021/08/29 03:17:07;;;;;;;8.75;4.30;;;14.50;99.90;;;16.19;100.00;100808.66;6159723;23;20387;-88
2021/08/29 03:19:35;;;;;;;10.52;4.15;;;14.50;99.90;;;16.17;100.00;100806.22;6135387;23;20025;-90
2021/08/29 03:22:03;;;;;;;14.15;5.32;;;14.60;99.90;;;16.20;100.00;100805.44;6160105;23;20009;-90
2021/08/29 03:24:31;;;;;;;8.25;4.60;;;14.60;99.90;;;16.20;100.00;100799.00;6135540;23;20508;-91
2021/08/29 03:26:57;;;;;;;11.32;5.13;;;14.60;99.90;;;16.16;100.00;100796.16;6134996;23;20032;-90
2021/08/29 03:29:23;;;;;;;10.73;4.80;;;14.60;99.90;;;16.17;100.00;100794.97;6161196;23;20446;-91
2021/08/29 03:31:49;;;;;;;15.38;5.25;;;14.60;99.90;;;16.16;100.00;100796.16;6134966;23;20010;-90
2021/08/29 03:34:19;;;;;;;11.95;5.63;;;14.60;99.90;;;16.18;100.00;100788.09;6134428;23;20009;-91
2021/08/29 03:36:45;;;;;;;9.38;5.35;;;14.60;99.90;;;16.17;100.00;100796.97;6135062;23;20014;-90
2021/08/29 03:39:14;;;;;;;9.55;5.38;;;14.60;99.90;;;16.20;100.00;100799.00;6160641;23;20455;-90
2021/08/29 03:41:43;;;;;;;12.90;5.07;;;14.60;99.90;;;16.20;100.00;100794.19;6161652;23;20017;-90
2021/08/29 03:44:13;;;;;;;13.20;5.70;;;14.60;99.90;;;16.21;100.00;100803.44;6162261;23;20009;-91
2021/08/29 03:46:40;;;;;;;10.75;5.38;;;14.60;99.90;;;16.21;100.00;100795.78;6135588;23;20001;-89
2021/08/29 03:49:07;;;;;;;11.55;5.53;;;14.60;99.90;;;16.22;100.00;100783.31;6162263;23;20010;-91
2021/08/29 03:51:37;;;;;;;15.93;5.50;;;14.60;99.90;;;16.22;100.00;100780.50;6136873;23;20033;-89
2021/08/29 03:54:06;;;;;;;16.25;5.65;;;14.60;99.90;;;16.22;100.00;100780.50;6137825;23;20017;-87
2021/08/29 03:56:35;;;;;;;10.95;5.60;;;14.60;99.90;;;16.21;100.00;100787.31;6137011;23;20069;-91
2021/08/29 03:59:02;;;;;;;17.15;5.75;;;14.60;99.90;;;16.24;100.00;100783.75;6161660;23;20013;-90
2021/08/29 04:01:29;;;;;;;13.48;6.45;;;14.60;99.90;;;16.21;100.00;100787.31;6164498;23;20005;-91
2021/08/29 04:03:56;;;;;;;15.23;5.85;;;14.60;99.90;;;16.15;100.00;100780.44;6162180;23;20010;-88
2021/08/29 04:06:26;;;;;;;11.95;5.85;;;14.60;99.90;;;16.21;100.00;100784.50;6143346;23;20100;-88
2021/08/29 04:08:57;;;;;;;11.15;5.45;;;14.60;99.90;;;16.24;100.00;100777.28;6147287;23;20056;-89
2021/08/29 04:11:30;;;;;;;13.40;5.65;;;14.60;99.90;;;16.19;100.00;100784.09;6146860;23;20420;-88
2021/08/29 04:13:58;;;;;;;10.82;6.00;;;14.60;99.90;;;16.16;100.00;100784.88;6173605;23;20005;-88
2021/08/29 04:16:25;;;;;;;16.35;6.05;;;14.60;99.90;;;16.19;100.00;100774.81;6142743;23;20407;-88
2021/08/29 04:18:54;;;;;;;15.10;6.82;;;14.60;99.90;;;16.13;100.00;100777.22;6135223;23;20321;-89
2021/08/29 04:21:25;;;;;;;15.35;6.05;;;14.60;99.90;;;16.19;100.00;100778.47;6160024;23;20466;-88
2021/08/29 04:23:52;;;;;;;12.38;5.95;;;14.60;99.90;;;16.17;100.00;100778.06;6135193;23;20097;-90
2021/08/29 04:26:18;;;;;;;14.48;6.22;;;14.60;99.90;;;16.12;100.00;100775.59;6135598;23;20008;-88
2021/08/29 04:28:45;;;;;;;12.57;7.00;;;14.60;99.90;;;16.14;100.00;100783.66;6159965;23;20068;-88
2021/08/29 04:31:23;;;;;;;12.88;6.13;;;14.60;99.90;;;16.10;100.00;100777.19;6135559;23;20344;-91
2021/08/29 04:33:51;;;;;;;17.55;6.70;;;14.50;99.90;;;16.10;100.00;100774.38;6162168;23;20006;-90
2021/08/29 04:36:18;;;;;;;18.55;6.88;;;14.50;99.90;;;16.10;100.00;100775.19;6164888;23;20008;-90
2021/08/29 04:38:44;;;;;;;18.48;6.65;;;14.50;99.90;;;16.14;100.00;100766.75;6141285;23;20029;-88
2021/08/29 04:41:09;;;;;;;14.45;6.28;;;14.60;99.90;;;16.13;100.00;100771.56;6148793;23;20065;-88
2021/08/29 04:43:35;;;;;;;14.70;7.10;;;14.50;99.90;;;16.12;100.00;100766.31;6152213;23;20009;-89
2021/08/29 04:46:01;;;;;;;20.52;7.65;;;14.50;99.90;;;16.09;100.00;100762.28;6138092;23;20006;-87
2021/08/29 04:48:27;;;;;;;14.73;6.90;;;14.50;99.90;;;16.01;100.00;100763.47;6136462;23;20076;-85
2021/08/29 04:50:54;;;;;;;20.63;7.30;;;14.50;99.90;;;16.06;100.00;100754.63;6161604;23;20064;-87
2021/08/29 04:53:19;;;;;;;19.45;6.65;;;14.50;99.90;;;16.04;100.00;100759.03;6136959;23;20381;-87
2021/08/29 04:55:45;;;;;;;12.23;5.88;;;14.50;99.90;;;16.06;100.00;100762.25;6136706;23;20009;-88
2021/08/29 04:58:11;;;;;;;15.13;6.13;;;14.50;99.90;;;16.09;100.00;100778.38;6139395;23;20025;-86
2021/08/29 05:00:37;;;;;;;12.55;5.93;;;14.50;99.90;;;16.11;100.00;100770.34;6168673;23;20013;-87
2021/08/29 05:03:03;;;;;;;14.95;6.88;;;14.50;99.90;;;16.09;100.00;100772.75;6135165;23;20014;-88
2021/08/29 05:05:29;;;;;;;16.75;7.25;;;14.50;99.90;;;16.12;100.00;100769.94;6135520;23;20461;-88
2021/08/29 05:07:56;;;;;;;16.10;6.55;;;14.50;99.90;;;16.08;100.00;100769.16;6136311;23;20021;-88
2021/08/29 05:10:22;;;;;;;17.00;6.65;;;14.50;99.90;;;16.11;100.00;100770.34;6135504;23;20024;-88
2021/08/29 05:12:48;;;;;;;15.43;6.57;;;14.60;99.90;;;16.07;100.00;100773.16;6135797;23;20013;-89
2021/08/29 05:15:14;;;;;;;15.65;7.30;;;14.50;99.90;;;16.09;100.00;100765.09;6161829;23;20012;-88
2021/08/29 05:17:40;;;;;;;15.82;6.65;;;14.60;99.90;;;16.09;100.00;100767.09;6135188;23;20056;-90
2021/08/29 05:20:07;;;;;;;12.73;6.43;;;14.50;99.90;;;16.09;100.00;100773.56;6135148;23;20017;-89
2021/08/29 05:22:33;;;;;;;15.07;6.70;;;14.50;99.90;;;16.08;100.00;100776.78;6134780;23;20092;-88
2021/08/29 05:24:58;;;;;;;15.88;6.05;;;14.60;99.90;;;16.13;100.00;100765.94;6135480;23;20009;-90
2021/08/29 05:27:24;;;;;;;11.75;7.10;;;14.50;99.90;;;16.12;100.00;100766.31;6135738;23;20006;-88
2021/08/29 05:29:50;;;;;;;19.42;6.85;;;14.60;99.90;;;16.13;100.00;100774.41;6136347;23;20017;-88
2021/08/29 05:32:16;;;;;;;13.23;6.53;;;14.60;99.90;;;16.19;100.00;100774.81;6135859;23;20010;-88
2021/08/29 05:34:42;;;;;;;11.93;6.10;;;14.60;99.90;;;16.21;100.00;100776.03;6135238;23;20005;-89
2021/08/29 05:37:07;;;;;;;14.00;6.15;;;14.60;99.90;;;16.19;100.00;100775.63;6135372;23;20454;-86
2021/08/29 05:39:33;;;;;;;15.95;6.72;;;14.70;99.90;;;16.21;100.00;100772.44;6136794;23;20028;-85
2021/08/29 05:41:59;;;;;;;20.88;6.35;;;14.70;99.90;;;16.21;100.00;100781.69;6136120;23;20017;-89
2021/08/29 05:44:25;;;;;;;19.15;6.20;;;14.60;99.90;;;16.23;100.00;100779.28;6135701;23;20009;-90
2021/08/29 05:46:51;;;;;;;14.07;5.97;;;14.70;99.90;;;16.24;100.00;100768.84;6135309;23;20083;-89
2021/08/29 05:49:16;;;;;;;18.08;6.63;;;14.60;99.90;;;16.20;100.00;100773.63;6136295;23;20424;-89
2021/08/29 05:51:42;;;;;;;15.43;6.40;;;14.70;99.90;;;16.26;100.00;100775.69;6136462;23;20033;-89
2021/08/29 05:54:09;;;;;;;17.35;6.88;;;14.70;99.90;;;16.25;100.00;100781.72;6136198;23;20010;-86
2021/08/29 05:56:34;;;;;;;14.27;6.00;;;14.70;99.90;;;16.26;100.00;100775.69;6137550;23;20324;-88
2021/08/29 05:59:00;;;;;;;12.30;5.57;;;14.70;99.90;;;16.29;100.00;100776.91;6138545;23;20063;-87
2021/08/29 06:01:26;;;;;;;15.95;6.53;;;14.70;99.90;;;16.32;100.00;100773.28;6137922;23;20436;-89
2021/08/29 06:03:53;;;;;;;15.45;5.82;;;14.80;99.90;;;16.35;100.00;100776.13;6163959;23;20014;-89
2021/08/29 06:06:19;;;;;;;16.83;7.35;;;14.70;99.90;;;16.39;100.00;100778.16;6164793;23;20047;-88
2021/08/29 06:08:45;;;;;;;16.23;6.50;;;14.80;99.90;;;16.39;100.00;100778.97;6177029;23;20005;-86
2021/08/29 06:11:10;;;;;;;13.15;5.75;;;14.70;99.90;;;16.39;100.00;100769.72;6171645;23;20395;-85
2021/08/29 06:13:36;;;;;;;15.50;6.25;;;14.70;99.90;;;16.41;100.00;100776.56;6134878;23;20408;-89
2021/08/29 06:16:04;;;;;;;15.75;5.90;;;14.80;99.90;;;16.45;100.00;100773.78;6134748;23;20019;-88
2021/08/29 06:18:30;;;;;;;15.77;6.80;;;14.80;99.90;;;16.49;100.00;100772.59;6135533;23;20012;-89
2021/08/29 06:20:56;;;;;;;18.45;6.10;;;14.90;99.90;;;16.50;100.00;100777.03;6134905;23;20050;-87
2021/08/29 06:23:23;;;;;;;11.82;5.82;;;14.90;99.90;;;16.61;100.00;100775.09;6112003;23;20041;-86
2021/08/29 06:25:48;;;;;;;14.40;5.90;;;15.00;99.90;;;16.64;100.00;100765.84;6111699;23;20083;-86
2021/08/29 06:28:14;;;;;;;13.20;5.70;;;15.00;99.90;;;16.66;100.00;100774.69;6134616;23;20424;-87
2021/08/29 06:30:40;;;;;;;19.65;6.20;;;15.00;99.90;;;16.69;100.00;100765.47;6135457;23;20025;-88
2021/08/29 06:33:06;;;;;;;11.82;5.65;;;15.00;99.90;;;16.67;100.00;100755.78;6110186;23;20014;-85
2021/08/29 06:35:33;;;;;;;12.05;6.22;;;15.00;99.90;;;16.70;100.00;100750.16;6111389;23;20017;-88
2021/08/29 06:37:59;;;;;;;13.70;5.47;;;15.10;99.90;;;16.68;100.00;100760.22;6111077;23;20452;-89
2021/08/29 06:40:25;;;;;;;9.50;5.40;;;15.00;99.90;;;16.59;100.00;100752.13;6117346;23;20033;-86
2021/08/29 06:42:52;;;;;;;12.98;5.28;;;15.00;99.90;;;16.54;100.00;100754.47;6112781;23;20009;-86
2021/08/29 06:45:19;;;;;;;15.43;5.72;;;15.00;99.90;;;16.53;100.00;100755.69;6113793;23;20017;-87
2021/08/29 06:47:45;;;;;;;14.48;5.65;;;15.00;99.90;;;16.50;100.00;100756.50;6114970;23;20009;-87
2021/08/29 06:50:11;;;;;;;12.27;5.60;;;14.90;99.90;;;16.53;100.00;100755.69;6113438;23;20049;-88
2021/08/29 06:52:37;;;;;;;11.75;6.22;;;14.90;99.90;;;16.52;100.00;100749.25;6143274;23;20017;-86
2021/08/29 06:55:03;;;;;;;10.70;5.30;;;14.90;99.90;;;16.53;100.00;100753.69;6114090;23;20113;-89
2021/08/29 06:57:30;;;;;;;14.05;5.63;;;14.90;99.90;;;16.54;100.00;100751.66;6117311;23;20455;-90
2021/08/29 06:59:55;;;;;;;15.05;5.80;;;14.90;99.90;;;16.54;100.00;100749.66;6114920;23;19994;-89
2021/08/29 07:02:22;;;;;;;16.83;5.60;;;14.90;99.90;;;16.60;100.00;100753.72;6138085;23;20012;-88
2021/08/29 07:04:49;;;;;;;10.95;5.95;;;15.00;99.90;;;16.59;100.00;100754.94;6115638;23;20010;-86
2021/08/29 07:07:16;;;;;;;12.50;5.25;;;14.90;99.90;;;16.58;100.00;100750.50;6118639;23;20080;-87
2021/08/29 07:09:44;;;;;;;10.25;5.22;;;15.00;99.90;;;16.58;100.00;100750.50;6117468;23;20010;-86
2021/08/29 07:12:11;;;;;;;12.45;5.72;;;15.00;99.90;;;16.63;100.00;100752.16;6143533;23;20073;-87
2021/08/29 07:14:39;;;;;;;13.60;5.40;;;14.90;99.90;;;16.59;100.00;100754.13;6123104;23;20061;-87
2021/08/29 07:17:06;;;;;;;10.80;5.50;;;14.90;99.90;;;16.53;100.00;100755.69;6117126;23;20022;-88
2021/08/29 07:19:32;;;;;;;16.55;6.03;;;14.90;99.90;;;16.52;100.00;100742.78;6115787;23;20069;-88
2021/08/29 07:21:58;;;;;;;11.07;5.70;;;14.90;99.90;;;16.62;100.00;100750.53;6116892;23;20096;-89
2021/08/29 07:24:24;;;;;;;13.85;5.68;;;15.00;99.90;;;16.62;100.00;100754.16;6119012;23;20010;-89
2021/08/29 07:26:51;;;;;;;18.38;6.28;;;15.00;99.90;;;16.57;100.00;100745.25;6119267;23;20029;-88
2021/08/29 07:29:18;;;;;;;11.85;5.38;;;15.00;99.90;;;16.56;100.00;100752.13;6142228;23;20006;-87
2021/08/29 07:31:44;;;;;;;10.48;5.15;;;15.00;99.90;;;16.49;100.00;100750.03;6139602;23;20097;-89
2021/08/29 07:34:09;;;;;;;9.45;5.65;;;14.90;99.90;;;16.44;100.00;100750.41;6112704;23;20018;-87
2021/08/29 07:36:35;;;;;;;8.55;5.10;;;14.90;99.90;;;16.42;100.00;100747.19;6113638;23;20010;-88
2021/08/29 07:39:01;;;;;;;11.07;5.60;;;14.80;99.90;;;16.36;100.00;100743.13;6113103;23;20006;-91
2021/08/29 07:41:27;;;;;;;13.65;5.50;;;14.80;99.90;;;16.34;100.00;100737.09;6144499;23;20006;-90
2021/08/29 07:43:53;;;;;;;10.15;5.55;;;14.80;99.90;;;16.33;100.00;100738.28;6122570;23;20072;-89
2021/08/29 07:46:24;;;;;;;11.52;5.18;;;14.70;99.90;;;16.30;100.00;100737.06;6146110;23;20084;-89
2021/08/29 07:48:52;;;;;;;11.75;5.13;;;14.80;99.90;;;16.31;100.00;100746.34;6135205;23;20077;-89
2021/08/29 07:51:18;;;;;;;9.27;5.20;;;14.80;99.90;;;16.33;100.00;100738.28;6110018;23;20503;-87
2021/08/29 07:53:44;;;;;;;9.18;5.35;;;14.80;99.90;;;16.40;100.00;100740.31;6109999;23;20010;-90
2021/08/29 07:56:10;;;;;;;10.38;4.47;;;14.80;99.90;;;16.48;100.00;100742.78;6109883;23;20029;-88
2021/08/29 07:58:36;;;;;;;9.98;5.63;;;14.90;99.90;;;16.55;100.00;100740.03;6108881;23;20056;-87
2021/08/29 08:01:02;;;;;;;11.85;5.20;;;14.90;99.90;;;16.59;100.00;100731.59;6109068;23;20013;-87
2021/08/29 08:03:29;;;;;;;10.52;4.72;;;14.90;99.90;;;16.61;100.00;100729.16;6108530;23;20388;-88
2021/08/29 08:05:55;;;;;;;9.55;4.53;;;15.00;99.90;;;16.65;100.00;100727.97;6108583;23;20034;-90
2021/08/29 08:08:21;;;;;;;9.32;4.78;;;15.00;99.90;;;16.66;100.00;100725.97;6131408;23;20013;-91
2021/08/29 08:10:47;;;;;;;10.05;4.70;;;15.00;99.90;;;16.68;100.00;100726.38;6132283;23;20013;-87
2021/08/29 08:13:14;;;;;;;8.23;3.78;;;15.00;99.90;;;16.65;100.00;100730.00;6106898;23;20092;-90
2021/08/29 08:15:40;;;;;;;7.65;3.85;;;15.00;99.90;;;16.63;100.00;100730.38;6108197;23;20016;-88
2021/08/29 08:18:06;;;;;;;7.20;3.72;;;15.00;99.90;;;16.70;100.00;100724.75;6133455;23;20033;-89
2021/08/29 08:20:32;;;;;;;7.85;3.97;;;15.00;99.90;;;16.75;100.00;100724.41;6106852;23;20013;-87
2021/08/29 08:22:57;;;;;;;7.20;3.63;;;15.10;99.90;;;16.73;100.00;100723.16;6108067;23;20459;-90
2021/08/29 08:25:23;;;;;;;6.45;3.70;;;15.10;99.90;;;16.74;100.00;100731.22;6107716;23;20002;-90
2021/08/29 08:27:49;;;;;;;6.80;4.00;;;15.10;99.90;;;16.74;100.00;100719.94;6107540;23;20010;-90
2021/08/29 08:30:15;;;;;;;8.07;4.40;;;15.10;99.90;;;16.72;100.00;100724.38;6131884;23;20009;-90
2021/08/29 08:32:41;;;;;;;4.88;3.42;;;15.10;99.90;;;16.76;100.00;100719.56;6106817;23;20014;-89
2021/08/29 08:35:08;;;;;;;6.63;3.60;;;15.20;99.90;;;16.77;100.00;100723.97;6109247;23;20025;-90
2021/08/29 08:37:34;;;;;;;4.93;3.65;;;15.10;99.90;;;16.82;100.00;100727.22;6108143;23;20017;-90
2021/08/29 08:39:59;;;;;;;7.10;3.63;;;15.20;99.90;;;16.84;100.00;100724.81;6133641;23;20030;-87
2021/08/29 08:42:26;;;;;;;7.18;3.28;;;15.20;99.90;;;16.77;100.00;100716.34;6107188;23;20022;-89
2021/08/29 08:44:53;;;;;;;4.78;3.25;;;15.20;99.90;;;16.85;100.00;100725.63;6112501;23;20013;-86
2021/08/29 08:47:20;;;;;;;5.55;3.00;;;15.20;99.90;;;16.82;100.00;100712.31;6114129;23;20016;-89
2021/08/29 08:49:48;;;;;;;3.95;2.72;;;15.30;99.90;;;16.79;100.00;100722.38;6117543;23;20068;-85
2021/08/29 08:52:27;;;;;;;3.92;2.55;;;15.10;99.90;;;16.87;100.00;100723.22;6119110;23;20006;-86
2021/08/29 08:55:00;;;;;;;4.78;2.83;;;15.20;99.90;;;16.86;100.00;100719.56;6118327;23;20455;-87
2021/08/29 08:57:28;;;;;;;4.43;2.85;;;15.20;99.90;;;16.91;100.00;100721.22;6140181;23;20014;-88
2021/08/29 08:59:53;;;;;;;4.88;2.60;;;15.30;99.90;;;16.88;100.00;100722.00;6116200;23;20006;-86
2021/08/29 09:02:21;;;;;;;4.78;2.65;;;15.30;99.90;;;16.88;100.00;100722.00;6140488;23;20005;-87
2021/08/29 09:04:49;;;;;;;3.78;2.40;;;15.30;99.90;;;16.90;100.00;100722.41;6139037;23;20484;-89
2021/08/29 09:07:15;;;;;;;4.28;2.42;;;15.20;99.90;;;16.93;100.00;100717.97;6113863;23;20006;-87
2021/08/29 09:09:42;;;;;;;4.68;2.40;;;15.30;99.90;;;16.94;100.00;100720.41;6115455;23;20018;-88
2021/08/29 09:12:09;;;;;;;3.90;2.78;;;15.30;99.90;;;16.94;100.00;100713.97;6112929;23;20006;-88
2021/08/29 09:14:51;;;;;;;5.05;2.88;;;15.30;99.90;;;16.91;100.00;100724.03;6112633;23;20014;-88
2021/08/29 09:17:37;;;;;;;5.15;2.50;;;15.30;99.90;;;16.90;100.00;100713.13;6113573;23;20014;-86
2021/08/29 09:20:22;;;;;;;;;;;15.30;99.90;;;16.92;100.00;100719.97;6136285;23;20105;-89
2021/08/29 09:23:01;;;;;;;4.60;2.65;;;15.30;99.90;;;16.94;100.00;100720.41;6167987;23;19956;-88
2021/08/29 09:25:40;;;;;;;4.93;2.38;;;15.30;99.90;;;16.90;100.00;100708.31;6143810;23;20006;-89
2021/08/29 09:28:16;;;;;;;3.03;2.17;;;15.30;99.90;;;16.96;100.00;100717.97;6170757;23;20072;-84
2021/08/29 09:30:46;;;;;;;4.47;2.75;;;15.30;99.90;;;16.96;100.00;100717.97;6173718;23;20026;-87
2021/08/29 09:33:15;;;;;;;3.70;2.15;;;15.30;99.90;;;16.97;100.00;100715.97;6167573;23;20005;-88
2021/08/29 09:35:41;;;;;;;2.65;1.63;;;15.30;99.90;;;17.01;100.00;100714.78;6171338;23;20015;-89
2021/08/29 09:38:16;;;;;;;3.40;2.05;;;15.30;99.90;;;17.04;100.00;100713.97;6145723;23;20016;-89
2021/08/29 09:40:41;;;;;;;3.72;1.90;;;15.40;99.90;;;17.03;100.00;100714.38;6171107;23;20006;-89
2021/08/29 09:43:08;;;;;;;2.65;1.63;;;15.30;99.90;;;17.08;100.00;100716.81;6147817;23;20037;-87
2021/08/29 09:45:40;;;;;;;3.15;1.70;;;15.40;99.90;;;17.11;100.00;100714.00;6145723;23;20006;-88
2021/08/29 09:48:14;;;;;;;2.80;1.75;;;15.40;99.90;;;17.11;100.00;100725.28;6148185;23;20284;-88
2021/08/29 09:50:45;;;;;;;2.25;1.58;;;15.50;99.90;;;17.10;100.00;100720.84;6174040;23;20033;-88
2021/08/29 09:53:20;;;;;;;2.50;1.48;;;15.40;99.90;;;17.11;100.00;100721.66;6176220;23;20061;-87
2021/08/29 09:55:53;;;;;;;1.77;1.40;;;15.40;99.90;;;17.14;100.00;100724.50;6145171;23;20019;-88
2021/08/29 09:58:33;;;;;;;2.38;1.42;;;15.40;99.90;;;17.17;100.00;100720.06;6168624;23;20020;-90
2021/08/29 10:01:15;;;;;;;3.22;1.08;;;15.50;99.90;;;17.00;100.00;100718.81;6141472;23;20041;-90
2021/08/29 10:03:51;;;;;;;2.08;1.25;;;15.40;99.90;;;16.99;100.00;100716.38;6171827;23;20455;-89
2021/08/29 10:06:25;;;;;;;2.95;1.27;;;15.40;99.90;;;17.08;100.00;100722.47;6171648;23;20005;-92
2021/08/29 10:09:02;;;;;;;2.05;1.30;;;15.40;99.90;;;17.06;100.00;100703.09;6147140;23;20025;-88